sensor_id;sensor_type;location;lat;lon;timestamp;pressure;altitude;pressure_sealevel;temperature;humidity
6425;BME280;12193;42.642;23.384;2023-06-19T03:08:46;94532.59;;;15.68;100.00
6425;BME280;12193;42.642;23.384;2023-06-19T03:11:15;94537.56;;;15.92;100.00
6425;BME280;12193;42.642;23.384;2023-06-19T03:13:47;94535.38;;;16.01;100.00
6425;BME280;12193;42.642;23.384;2023-06-19T03:16:17;94538.91;;;16.06;100.00
6425;BME280;12193;42.642;23.384;2023-06-19T03:18:47;94537.72;;;15.63;100.00
6425;BME280;12193;42.642;23.384;2023-06-19T03:21:16;94537.41;;;15.48;100.00
6425;BME280;12193;42.642;23.384;2023-06-19T03:23:48;94535.94;;;15.52;100.00
6425;BME280;12193;42.642;23.384;2023-06-19T03:26:18;94530.69;;;15.52;100.00
6425;BME280;12193;42.642;23.384;2023-06-19T03:28:48;94531.03;;;15.56;100.00
6425;BME280;12193;42.642;23.384;2023-06-19T03:31:17;94532.16;;;15.60;100.00
6425;BME280;12193;42.642;23.384;2023-06-19T03:33:46;94532.16;;;15.71;100.00
6425;BME280;12193;42.642;23.384;2023-06-19T03:36:16;94529.81;;;15.86;100.00
6425;BME280;12193;42.642;23.384;2023-06-19T03:38:48;94530.25;;;15.94;100.00
6425;BME280;12193;42.642;23.384;2023-06-19T03:41:17;94531.72;;;16.02;100.00
6425;BME280;12193;42.642;23.384;2023-06-19T03:43:46;94538.59;;;15.91;100.00
6425;BME280;12193;42.642;23.384;2023-06-19T03:46:16;94533.00;;;15.88;100.00
6425;BME280;12193;42.642;23.384;2023-06-19T03:48:45;94535.03;;;15.97;100.00
6425;BME280;12193;42.642;23.384;2023-06-19T03:51:14;94538.59;;;15.80;100.00
6425;BME280;12193;42.642;23.384;2023-06-19T03:53:44;94540.66;;;15.89;100.00
6425;BME280;12193;42.642;23.384;2023-06-19T03:56:16;94533.31;;;16.03;100.00
6425;BME280;12193;42.642;23.384;2023-06-19T03:58:45;94532.06;;;16.05;100.00
6425;BME280;12193;42.642;23.384;2023-06-19T04:01:14;94531.31;;;16.21;100.00
6425;BME280;12193;42.642;23.384;2023-06-19T04:03:43;94533.13;;;16.21;100.00
6425;BME280;12193;42.642;23.384;2023-06-19T04:06:13;94528.13;;;16.19;100.00
6425;BME280;12193;42.642;23.384;2023-06-19T04:08:43;94539.34;;;16.43;100.00
6425;BME280;12193;42.642;23.384;2023-06-19T04:11:15;94527.63;;;16.62;100.00
6425;BME280;12193;42.642;23.384;2023-06-19T04:13:45;94532.03;;;16.89;100.00
6425;BME280;12193;42.642;23.384;2023-06-19T04:16:14;94531.81;;;17.07;100.00
6425;BME280;12193;42.642;23.384;2023-06-19T04:18:43;94536.59;;;17.10;100.00
6425;BME280;12193;42.642;23.384;2023-06-19T04:21:13;94536.66;;;17.31;100.00
6425;BME280;12193;42.642;23.384;2023-06-19T04:23:43;94531.78;;;17.23;100.00
6425;BME280;12193;42.642;23.384;2023-06-19T04:26:15;94524.72;;;17.24;100.00
6425;BME280;12193;42.642;23.384;2023-06-19T04:28:45;94521.94;;;17.68;100.00
6425;BME280;12193;42.642;23.384;2023-06-19T04:31:14;94528.97;;;17.63;100.00
6425;BME280;12193;42.642;23.384;2023-06-19T04:33:45;94536.47;;;17.54;100.00
6425;BME280;12193;42.642;23.384;2023-06-19T04:36:14;94533.31;;;17.73;100.00
6425;BME280;12193;42.642;23.384;2023-06-19T04:38:45;94533.91;;;17.97;100.00
6425;BME280;12193;42.642;23.384;2023-06-19T04:41:17;94525.34;;;18.28;100.00
6425;BME280;12193;42.642;23.384;2023-06-19T04:43:46;94524.16;;;18.40;100.00
6425;BME280;12193;42.642;23.384;2023-06-19T04:46:15;94525.31;;;18.49;100.00
6425;BME280;12193;42.642;23.384;2023-06-19T04:48:46;94532.53;;;18.59;100.00
6425;BME280;12193;42.642;23.384;2023-06-19T04:51:17;94536.53;;;18.66;100.00
6425;BME280;12193;42.642;23.384;2023-06-19T04:53:47;94530.03;;;18.47;100.00
6425;BME280;12193;42.642;23.384;2023-06-19T04:56:19;94535.19;;;18.37;100.00
6425;BME280;12193;42.642;23.384;2023-06-19T04:58:48;94531.63;;;18.27;100.00
6425;BME280;12193;42.642;23.384;2023-06-19T05:01:17;94525.94;;;18.35;100.00
6425;BME280;12193;42.642;23.384;2023-06-19T05:03:54;94533.75;;;18.51;100.00
6425;BME280;12193;42.642;23.384;2023-06-19T05:06:26;94531.72;;;18.58;100.00
6425;BME280;12193;42.642;23.384;2023-06-19T05:08:55;94524.69;;;18.64;100.00
6425;BME280;12193;42.642;23.384;2023-06-19T05:11:27;94526.63;;;19.04;100.00
6425;BME280;12193;42.642;23.384;2023-06-19T05:13:56;94526.41;;;19.42;100.00
6425;BME280;12193;42.642;23.384;2023-06-19T05:16:25;94525.41;;;19.94;100.00
6425;BME280;12193;42.642;23.384;2023-06-19T05:18:55;94533.50;;;20.34;100.00
6425;BME280;12193;42.642;23.384;2023-06-19T05:21:24;94533.25;;;20.51;100.00
6425;BME280;12193;42.642;23.384;2023-06-19T05:23:53;94538.59;;;20.71;100.00
6425;BME280;12193;42.642;23.384;2023-06-19T05:26:22;94534.34;;;20.45;99.07
6425;BME280;12193;42.642;23.384;2023-06-19T05:28:54;94542.91;;;20.87;96.85
6425;BME280;12193;42.642;23.384;2023-06-19T05:31:24;94548.47;;;21.15;92.56
6425;BME280;12193;42.642;23.384;2023-06-19T05:33:53;94546.34;;;21.62;88.21
6425;BME280;12193;42.642;23.384;2023-06-19T05:36:22;94560.34;;;21.82;86.67
6425;BME280;12193;42.642;23.384;2023-06-19T05:38:51;94561.91;;;22.71;80.46
6425;BME280;12193;42.642;23.384;2023-06-19T05:41:21;94562.22;;;23.13;78.41
6425;BME280;12193;42.642;23.384;2023-06-19T05:43:51;94560.47;;;22.30;78.78
6425;BME280;12193;42.642;23.384;2023-06-19T05:46:23;94559.88;;;23.02;75.51
6425;BME280;12193;42.642;23.384;2023-06-19T05:48:52;94558.56;;;23.71;70.18
6425;BME280;12193;42.642;23.384;2023-06-19T05:51:21;94562.78;;;24.52;67.24
6425;BME280;12193;42.642;23.384;2023-06-19T05:53:51;94551.44;;;23.95;67.56
6425;BME280;12193;42.642;23.384;2023-06-19T05:56:20;94560.69;;;24.25;66.64
6425;BME280;12193;42.642;23.384;2023-06-19T05:58:50;94562.25;;;24.73;66.18
6425;BME280;12193;42.642;23.384;2023-06-19T06:01:22;94558.38;;;24.84;63.66
6425;BME280;12193;42.642;23.384;2023-06-19T06:03:51;94558.91;;;25.23;59.93
6425;BME280;12193;42.642;23.384;2023-06-19T06:06:20;94555.38;;;24.91;60.88
6425;BME280;12193;42.642;23.384;2023-06-19T06:08:50;94567.16;;;25.22;58.40
6425;BME280;12193;42.642;23.384;2023-06-19T06:11:22;94564.50;;;25.22;58.38
6425;BME280;12193;42.642;23.384;2023-06-19T06:13:52;94565.03;;;24.63;61.14
6425;BME280;12193;42.642;23.384;2023-06-19T06:16:24;94565.69;;;25.66;57.03
6425;BME280;12193;42.642;23.384;2023-06-19T06:18:54;94552.91;;;25.49;55.99
6425;BME280;12193;42.642;23.384;2023-06-19T06:21:23;94561.81;;;25.72;54.24
6425;BME280;12193;42.642;23.384;2023-06-19T06:23:52;94555.38;;;25.59;54.58
6425;BME280;12193;42.642;23.384;2023-06-19T06:26:22;94558.81;;;25.10;56.07
6425;BME280;12193;42.642;23.384;2023-06-19T06:28:51;94569.56;;;25.23;56.91
6425;BME280;12193;42.642;23.384;2023-06-19T06:31:24;94563.28;;;25.14;57.60
6425;BME280;12193;42.642;23.384;2023-06-19T06:33:54;94540.66;;;25.48;56.86
6425;BME280;12193;42.642;23.384;2023-06-19T06:36:23;94565.41;;;26.26;54.17
6425;BME280;12193;42.642;23.384;2023-06-19T06:38:53;94561.66;;;26.40;52.64
6425;BME280;12193;42.642;23.384;2023-06-19T06:41:23;94567.06;;;26.22;53.22
6425;BME280;12193;42.642;23.384;2023-06-19T06:43:52;94563.44;;;26.18;53.55
6425;BME280;12193;42.642;23.384;2023-06-19T06:46:24;94563.91;;;26.20;52.18
6425;BME280;12193;42.642;23.384;2023-06-19T06:48:54;94564.00;;;25.70;53.93
6425;BME280;12193;42.642;23.384;2023-06-19T06:51:23;94574.94;;;26.00;52.91
6425;BME280;12193;42.642;23.384;2023-06-19T06:53:52;94581.13;;;26.81;51.92
6425;BME280;12193;42.642;23.384;2023-06-19T06:56:21;94565.38;;;27.42;48.67
6425;BME280;12193;42.642;23.384;2023-06-19T06:58:51;94570.22;;;27.40;49.53
6425;BME280;12193;42.642;23.384;2023-06-19T07:01:20;94567.22;;;26.57;50.01
6425;BME280;12193;42.642;23.384;2023-06-19T07:03:52;94559.72;;;26.59;51.06
6425;BME280;12193;42.642;23.384;2023-06-19T07:06:22;94556.19;;;27.70;48.84
6425;BME280;12193;42.642;23.384;2023-06-19T07:08:51;94565.31;;;27.99;46.55
6425;BME280;12193;42.642;23.384;2023-06-19T07:11:20;94568.03;;;28.08;45.91
6425;BME280;12193;42.642;23.384;2023-06-19T07:13:50;94566.91;;;26.72;50.37
6425;BME280;12193;42.642;23.384;2023-06-19T07:16:19;94560.53;;;27.44;46.33
6425;BME280;12193;42.642;23.384;2023-06-19T07:18:48;94562.09;;;27.45;47.28
6425;BME280;12193;42.642;23.384;2023-06-19T07:21:20;94559.50;;;27.53;47.05
6425;BME280;12193;42.642;23.384;2023-06-19T07:23:50;94565.66;;;27.62;48.15
6425;BME280;12193;42.642;23.384;2023-06-19T07:26:20;94568.22;;;27.46;47.71
6425;BME280;12193;42.642;23.384;2023-06-19T07:28:49;94562.78;;;27.72;46.23
6425;BME280;12193;42.642;23.384;2023-06-19T07:31:18;94572.47;;;27.47;46.78
6425;BME280;12193;42.642;23.384;2023-06-19T07:33:48;94568.16;;;27.59;47.66
6425;BME280;12193;42.642;23.384;2023-06-19T07:36:19;94571.78;;;28.29;43.98
6425;BME280;12193;42.642;23.384;2023-06-19T07:38:49;94567.19;;;27.99;45.05
6425;BME280;12193;42.642;23.384;2023-06-19T07:41:19;94565.91;;;28.57;42.96
6425;BME280;12193;42.642;23.384;2023-06-19T07:43:48;94576.00;;;28.60;43.30
6425;BME280;12193;42.642;23.384;2023-06-19T07:46:17;94568.22;;;28.89;41.74
6425;BME280;12193;42.642;23.384;2023-06-19T07:48:46;94568.25;;;29.06;41.17
6425;BME280;12193;42.642;23.384;2023-06-19T07:51:15;94572.91;;;28.75;41.81
6425;BME280;12193;42.642;23.384;2023-06-19T07:53:47;94569.66;;;28.95;41.27
6425;BME280;12193;42.642;23.384;2023-06-19T07:56:17;94567.47;;;29.05;41.56
6425;BME280;12193;42.642;23.384;2023-06-19T07:58:47;94569.53;;;29.17;40.46
6425;BME280;12193;42.642;23.384;2023-06-19T08:01:16;94562.28;;;29.26;40.92
6425;BME280;12193;42.642;23.384;2023-06-19T08:03:45;94564.47;;;29.07;41.11
6425;BME280;12193;42.642;23.384;2023-06-19T08:06:15;94554.09;;;29.22;42.15
6425;BME280;12193;42.642;23.384;2023-06-19T08:08:47;94560.38;;;28.92;44.21
6425;BME280;12193;42.642;23.384;2023-06-19T08:11:18;94558.28;;;28.81;41.91
6425;BME280;12193;42.642;23.384;2023-06-19T08:13:47;94569.78;;;28.12;43.37
6425;BME280;12193;42.642;23.384;2023-06-19T08:16:16;94569.75;;;28.73;43.61
6425;BME280;12193;42.642;23.384;2023-06-19T08:18:46;94565.28;;;27.91;42.28
6425;BME280;12193;42.642;23.384;2023-06-19T08:21:15;94563.88;;;28.24;42.27
6425;BME280;12193;42.642;23.384;2023-06-19T08:23:49;94563.66;;;27.24;42.92
6425;BME280;12193;42.642;23.384;2023-06-19T08:26:18;94563.31;;;28.05;42.08
6425;BME280;12193;42.642;23.384;2023-06-19T08:28:47;94560.38;;;28.23;43.89
6425;BME280;12193;42.642;23.384;2023-06-19T08:31:16;94568.66;;;28.35;40.52
6425;BME280;12193;42.642;23.384;2023-06-19T08:33:47;94567.78;;;28.57;41.37
6425;BME280;12193;42.642;23.384;2023-06-19T08:36:17;94562.09;;;28.88;40.34
6425;BME280;12193;42.642;23.384;2023-06-19T08:38:49;94564.38;;;28.26;39.59
6425;BME280;12193;42.642;23.384;2023-06-19T08:41:19;94565.56;;;28.20;41.48
6425;BME280;12193;42.642;23.384;2023-06-19T08:43:49;94569.06;;;29.23;38.04
6425;BME280;12193;42.642;23.384;2023-06-19T08:46:18;94566.88;;;29.17;38.21
6425;BME280;12193;42.642;23.384;2023-06-19T08:48:48;94572.97;;;29.00;37.84
6425;BME280;12193;42.642;23.384;2023-06-19T08:51:17;94568.63;;;28.74;36.86
6425;BME280;12193;42.642;23.384;2023-06-19T08:53:54;94566.06;;;28.52;39.84
6425;BME280;12193;42.642;23.384;2023-06-19T08:56:24;94565.91;;;29.04;37.57
6425;BME280;12193;42.642;23.384;2023-06-19T08:58:53;94562.25;;;28.92;36.74
6425;BME280;12193;42.642;23.384;2023-06-19T09:01:23;94565.44;;;29.19;39.47
6425;BME280;12193;42.642;23.384;2023-06-19T09:03:53;94560.06;;;29.11;38.96
6425;BME280;12193;42.642;23.384;2023-06-19T09:06:23;94569.69;;;29.20;38.76
6425;BME280;12193;42.642;23.384;2023-06-19T09:09:01;94568.78;;;29.25;38.74
6425;BME280;12193;42.642;23.384;2023-06-19T09:11:32;94564.03;;;29.81;37.51
6425;BME280;12193;42.642;23.384;2023-06-19T09:14:02;94566.22;;;29.79;38.14
6425;BME280;12193;42.642;23.384;2023-06-19T09:16:36;94556.97;;;29.43;38.38
6425;BME280;12193;42.642;23.384;2023-06-19T09:19:07;94558.00;;;28.91;36.70
6425;BME280;12193;42.642;23.384;2023-06-19T09:21:37;94554.47;;;28.04;38.93
6425;BME280;12193;42.642;23.384;2023-06-19T09:24:09;94556.72;;;28.33;37.70
6425;BME280;12193;42.642;23.384;2023-06-19T09:26:39;94558.81;;;28.91;35.88
6425;BME280;12193;42.642;23.384;2023-06-19T09:29:12;94558.06;;;29.59;35.84
6425;BME280;12193;42.642;23.384;2023-06-19T09:31:42;94558.38;;;29.74;36.28
6425;BME280;12193;42.642;23.384;2023-06-19T09:34:11;94555.19;;;29.89;36.43
6425;BME280;12193;42.642;23.384;2023-06-19T09:36:40;94555.53;;;29.70;37.15
6425;BME280;12193;42.642;23.384;2023-06-19T09:39:14;94547.00;;;29.77;38.37
6425;BME280;12193;42.642;23.384;2023-06-19T09:41:46;94551.91;;;29.67;37.20
6425;BME280;12193;42.642;23.384;2023-06-19T09:44:20;94547.84;;;29.44;35.98
6425;BME280;12193;42.642;23.384;2023-06-19T09:46:52;94547.16;;;29.38;34.03
6425;BME280;12193;42.642;23.384;2023-06-19T09:49:24;94548.44;;;29.32;34.34
6425;BME280;12193;42.642;23.384;2023-06-19T09:51:57;94549.06;;;29.71;35.42
6425;BME280;12193;42.642;23.384;2023-06-19T09:54:32;94542.38;;;29.94;35.62
6425;BME280;12193;42.642;23.384;2023-06-19T09:57:04;94547.28;;;29.92;34.28
6425;BME280;12193;42.642;23.384;2023-06-19T09:59:34;94544.47;;;29.97;33.73
6425;BME280;12193;42.642;23.384;2023-06-19T10:02:04;94551.56;;;29.00;34.87
6425;BME280;12193;42.642;23.384;2023-06-19T10:04:42;94541.19;;;29.16;36.58
6425;BME280;12193;42.642;23.384;2023-06-19T10:07:16;94545.16;;;29.52;34.68
6425;BME280;12193;42.642;23.384;2023-06-19T10:10:00;94537.75;;;29.49;35.18
6425;BME280;12193;42.642;23.384;2023-06-19T10:12:39;94542.00;;;29.59;36.33
6425;BME280;12193;42.642;23.384;2023-06-19T10:15:16;94536.00;;;29.53;33.23
6425;BME280;12193;42.642;23.384;2023-06-19T10:17:47;94533.59;;;29.85;33.25
6425;BME280;12193;42.642;23.384;2023-06-19T10:20:22;94530.00;;;30.36;32.18
6425;BME280;12193;42.642;23.384;2023-06-19T10:22:52;94529.31;;;29.93;34.88
6425;BME280;12193;42.642;23.384;2023-06-19T10:25:28;94524.13;;;29.88;36.40
6425;BME280;12193;42.642;23.384;2023-06-19T10:27:58;94512.34;;;30.18;33.08
6425;BME280;12193;42.642;23.384;2023-06-19T10:30:28;94523.94;;;30.10;31.87
6425;BME280;12193;42.642;23.384;2023-06-19T10:32:58;94521.19;;;29.56;29.75
6425;BME280;12193;42.642;23.384;2023-06-19T10:35:28;94526.47;;;29.89;32.11
6425;BME280;12193;42.642;23.384;2023-06-19T10:37:58;94520.91;;;30.11;32.93
6425;BME280;12193;42.642;23.384;2023-06-19T10:40:30;94510.13;;;29.57;33.54
6425;BME280;12193;42.642;23.384;2023-06-19T10:42:59;94514.47;;;29.95;34.03
6425;BME280;12193;42.642;23.384;2023-06-19T10:45:29;94511.31;;;29.93;33.11
6425;BME280;12193;42.642;23.384;2023-06-19T10:48:00;94516.03;;;30.05;33.83
6425;BME280;12193;42.642;23.384;2023-06-19T10:50:34;94509.94;;;29.70;35.22
6425;BME280;12193;42.642;23.384;2023-06-19T10:53:04;94511.09;;;29.53;33.75
6425;BME280;12193;42.642;23.384;2023-06-19T10:55:36;94514.47;;;30.04;31.71
6425;BME280;12193;42.642;23.384;2023-06-19T10:58:05;94508.06;;;29.79;31.97
6425;BME280;12193;42.642;23.384;2023-06-19T11:00:35;94509.75;;;29.92;33.87
6425;BME280;12193;42.642;23.384;2023-06-19T11:03:05;94508.06;;;30.34;33.74
6425;BME280;12193;42.642;23.384;2023-06-19T11:05:34;94508.59;;;30.56;33.78
6425;BME280;12193;42.642;23.384;2023-06-19T11:08:04;94517.94;;;29.96;34.11
6425;BME280;12193;42.642;23.384;2023-06-19T11:10:35;94499.56;;;28.93;34.03
6425;BME280;12193;42.642;23.384;2023-06-19T11:13:05;94499.59;;;28.37;34.94
6425;BME280;12193;42.642;23.384;2023-06-19T11:15:34;94501.69;;;27.57;38.08
6425;BME280;12193;42.642;23.384;2023-06-19T11:18:04;94498.59;;;27.42;38.05
6425;BME280;12193;42.642;23.384;2023-06-19T11:20:43;94501.78;;;26.73;40.79
6425;BME280;12193;42.642;23.384;2023-06-19T11:23:13;94500.44;;;26.98;40.33
6425;BME280;12193;42.642;23.384;2023-06-19T11:25:45;94491.09;;;27.44;40.72
6425;BME280;12193;42.642;23.384;2023-06-19T11:28:15;94491.19;;;26.82;40.33
6425;BME280;12193;42.642;23.384;2023-06-19T11:30:49;94497.59;;;26.32;41.53
6425;BME280;12193;42.642;23.384;2023-06-19T11:33:26;94491.09;;;27.44;39.86
6425;BME280;12193;42.642;23.384;2023-06-19T11:36:00;94494.84;;;28.26;39.61
6425;BME280;12193;42.642;23.384;2023-06-19T11:38:29;94497.34;;;28.22;40.41
6425;BME280;12193;42.642;23.384;2023-06-19T11:41:03;94486.66;;;27.61;44.41
6425;BME280;12193;42.642;23.384;2023-06-19T11:43:35;94490.97;;;28.01;40.36
6425;BME280;12193;42.642;23.384;2023-06-19T11:46:05;94489.44;;;27.78;42.83
6425;BME280;12193;42.642;23.384;2023-06-19T11:48:36;94489.34;;;29.03;38.97
6425;BME280;12193;42.642;23.384;2023-06-19T11:51:07;94489.25;;;29.88;38.91
6425;BME280;12193;42.642;23.384;2023-06-19T11:53:36;94477.00;;;28.68;39.74
6425;BME280;12193;42.642;23.384;2023-06-19T11:56:09;94473.97;;;28.06;42.49
6425;BME280;12193;42.642;23.384;2023-06-19T11:58:38;94477.75;;;28.44;42.01
6425;BME280;12193;42.642;23.384;2023-06-19T12:01:07;94470.28;;;28.88;40.31
6425;BME280;12193;42.642;23.384;2023-06-19T12:03:37;94467.59;;;27.85;44.57
6425;BME280;12193;42.642;23.384;2023-06-19T12:06:06;94470.09;;;27.51;43.24
6425;BME280;12193;42.642;23.384;2023-06-19T12:08:36;94474.06;;;26.96;46.42
6425;BME280;12193;42.642;23.384;2023-06-19T12:11:08;94465.53;;;27.30;43.46
6425;BME280;12193;42.642;23.384;2023-06-19T12:13:40;94474.66;;;27.59;43.91
6425;BME280;12193;42.642;23.384;2023-06-19T12:16:10;94465.91;;;27.89;42.33
6425;BME280;12193;42.642;23.384;2023-06-19T12:18:39;94469.47;;;28.79;40.90
6425;BME280;12193;42.642;23.384;2023-06-19T12:21:09;94461.88;;;27.69;43.13
6425;BME280;12193;42.642;23.384;2023-06-19T12:23:38;94464.22;;;27.19;45.84
6425;BME280;12193;42.642;23.384;2023-06-19T12:26:10;94466.94;;;27.27;44.80
6425;BME280;12193;42.642;23.384;2023-06-19T12:28:39;94462.84;;;27.73;44.66
6425;BME280;12193;42.642;23.384;2023-06-19T12:31:09;94461.41;;;28.06;43.94
6425;BME280;12193;42.642;23.384;2023-06-19T12:33:38;94457.81;;;28.66;44.61
6425;BME280;12193;42.642;23.384;2023-06-19T12:36:11;94463.00;;;28.80;41.81
6425;BME280;12193;42.642;23.384;2023-06-19T12:38:41;94468.75;;;28.40;44.08
6425;BME280;12193;42.642;23.384;2023-06-19T12:41:14;94459.38;;;27.73;43.91
6425;BME280;12193;42.642;23.384;2023-06-19T12:43:43;94458.00;;;27.32;45.52
6425;BME280;12193;42.642;23.384;2023-06-19T12:46:13;94456.38;;;26.51;47.15
6425;BME280;12193;42.642;23.384;2023-06-19T12:48:42;94456.28;;;26.30;48.86
6425;BME280;12193;42.642;23.384;2023-06-19T12:51:17;94446.38;;;26.92;48.50
6425;BME280;12193;42.642;23.384;2023-06-19T12:53:46;94448.44;;;27.09;48.54
6425;BME280;12193;42.642;23.384;2023-06-19T12:56:18;94453.69;;;27.00;46.24
6425;BME280;12193;42.642;23.384;2023-06-19T12:58:47;94449.31;;;26.82;46.03
6425;BME280;12193;42.642;23.384;2023-06-19T13:01:17;94447.06;;;26.98;46.85
6425;BME280;12193;42.642;23.384;2023-06-19T13:03:46;94440.09;;;26.88;45.65
6425;BME280;12193;42.642;23.384;2023-06-19T13:06:15;94446.69;;;27.04;46.71
6425;BME280;12193;42.642;23.384;2023-06-19T13:08:45;94447.31;;;26.88;50.02
6425;BME280;12193;42.642;23.384;2023-06-19T13:11:14;94444.66;;;26.74;46.70
6425;BME280;12193;42.642;23.384;2023-06-19T13:13:47;94444.00;;;27.26;45.16
6425;BME280;12193;42.642;23.384;2023-06-19T13:16:16;94442.59;;;27.59;44.78
6425;BME280;12193;42.642;23.384;2023-06-19T13:18:46;94449.16;;;27.53;43.97
6425;BME280;12193;42.642;23.384;2023-06-19T13:21:15;94445.84;;;27.04;44.42
6425;BME280;12193;42.642;23.384;2023-06-19T13:23:45;94452.06;;;26.77;45.49
6425;BME280;12193;42.642;23.384;2023-06-19T13:26:15;94439.31;;;26.52;44.88
6425;BME280;12193;42.642;23.384;2023-06-19T13:28:47;94444.25;;;27.03;43.66
6425;BME280;12193;42.642;23.384;2023-06-19T13:31:17;94447.16;;;27.28;44.31
6425;BME280;12193;42.642;23.384;2023-06-19T13:33:47;94447.09;;;27.42;42.84
6425;BME280;12193;42.642;23.384;2023-06-19T13:36:16;94442.50;;;27.94;41.46
6425;BME280;12193;42.642;23.384;2023-06-19T13:38:46;94450.25;;;27.74;42.02
6425;BME280;12193;42.642;23.384;2023-06-19T13:41:15;94442.66;;;27.15;42.94
6425;BME280;12193;42.642;23.384;2023-06-19T13:43:47;94441.72;;;26.76;43.13
6425;BME280;12193;42.642;23.384;2023-06-19T13:46:17;94439.38;;;26.61;44.74
6425;BME280;12193;42.642;23.384;2023-06-19T13:48:47;94442.06;;;26.83;44.20
6425;BME280;12193;42.642;23.384;2023-06-19T13:51:17;94447.22;;;27.15;41.23
6425;BME280;12193;42.642;23.384;2023-06-19T13:53:47;94434.91;;;27.27;42.95
6425;BME280;12193;42.642;23.384;2023-06-19T13:56:16;94442.66;;;27.37;42.29
6425;BME280;12193;42.642;23.384;2023-06-19T13:58:49;94438.06;;;27.07;42.57
6425;BME280;12193;42.642;23.384;2023-06-19T14:01:18;94441.19;;;26.52;43.19
6425;BME280;12193;42.642;23.384;2023-06-19T14:03:47;94438.94;;;26.32;43.23
6425;BME280;12193;42.642;23.384;2023-06-19T14:06:17;94444.59;;;26.04;43.25
6425;BME280;12193;42.642;23.384;2023-06-19T14:08:46;94443.78;;;26.43;42.52
6425;BME280;12193;42.642;23.384;2023-06-19T14:11:15;94437.75;;;26.38;41.28
6425;BME280;12193;42.642;23.384;2023-06-19T14:13:47;94421.75;;;26.38;41.10
6425;BME280;12193;42.642;23.384;2023-06-19T14:16:17;94433.94;;;26.17;41.78
6425;BME280;12193;42.642;23.384;2023-06-19T14:18:46;94435.78;;;25.90;42.53
6425;BME280;12193;42.642;23.384;2023-06-19T14:21:16;94425.13;;;25.76;42.78
6425;BME280;12193;42.642;23.384;2023-06-19T14:23:45;94428.44;;;25.55;43.89
6425;BME280;12193;42.642;23.384;2023-06-19T14:26:14;94436.50;;;25.82;42.75
6425;BME280;12193;42.642;23.384;2023-06-19T14:28:43;94439.84;;;25.87;43.16
6425;BME280;12193;42.642;23.384;2023-06-19T14:31:15;94426.22;;;26.02;43.39
6425;BME280;12193;42.642;23.384;2023-06-19T14:33:45;94429.69;;;26.03;42.55
6425;BME280;12193;42.642;23.384;2023-06-19T14:36:14;94421.28;;;26.09;42.32
6425;BME280;12193;42.642;23.384;2023-06-19T14:38:43;94425.84;;;26.09;41.65
6425;BME280;12193;42.642;23.384;2023-06-19T14:41:13;94429.69;;;26.03;42.64
6425;BME280;12193;42.642;23.384;2023-06-19T14:43:42;94418.81;;;25.99;43.22
6425;BME280;12193;42.642;23.384;2023-06-19T14:46:11;94412.88;;;26.16;42.37
6425;BME280;12193;42.642;23.384;2023-06-19T14:48:43;94416.22;;;26.21;42.97
6425;BME280;12193;42.642;23.384;2023-06-19T14:51:12;94417.50;;;25.70;44.02
6425;BME280;12193;42.642;23.384;2023-06-19T14:53:42;94411.91;;;25.71;43.99
6425;BME280;12193;42.642;23.384;2023-06-19T14:56:11;94423.56;;;25.89;43.73
6425;BME280;12193;42.642;23.384;2023-06-19T14:58:40;94417.53;;;26.10;42.89
6425;BME280;12193;42.642;23.384;2023-06-19T15:01:10;94417.22;;;26.25;43.07
6425;BME280;12193;42.642;23.384;2023-06-19T15:03:39;94411.19;;;26.20;44.65
6425;BME280;12193;42.642;23.384;2023-06-19T15:06:11;94421.78;;;25.98;43.56
6425;BME280;12193;42.642;23.384;2023-06-19T15:08:41;94406.69;;;26.07;42.74
6425;BME280;12193;42.642;23.384;2023-06-19T15:11:10;94399.94;;;26.36;42.80
6425;BME280;12193;42.642;23.384;2023-06-19T15:13:40;94402.53;;;26.63;42.90
6425;BME280;12193;42.642;23.384;2023-06-19T15:16:09;94396.69;;;26.61;43.54
6425;BME280;12193;42.642;23.384;2023-06-19T15:18:39;94413.34;;;26.31;42.88
6425;BME280;12193;42.642;23.384;2023-06-19T15:21:11;94406.44;;;26.43;42.71
6425;BME280;12193;42.642;23.384;2023-06-19T15:23:40;94407.91;;;26.36;42.84
6425;BME280;12193;42.642;23.384;2023-06-19T15:26:10;94396.94;;;26.51;43.48
6425;BME280;12193;42.642;23.384;2023-06-19T15:28:39;94409.34;;;26.91;43.76
6425;BME280;12193;42.642;23.384;2023-06-19T15:31:10;94409.81;;;26.93;43.88
6425;BME280;12193;42.642;23.384;2023-06-19T15:33:39;94404.44;;;26.84;42.38
6425;BME280;12193;42.642;23.384;2023-06-19T15:36:11;94405.09;;;26.68;42.35
6425;BME280;12193;42.642;23.384;2023-06-19T15:38:40;94404.78;;;26.69;43.66
6425;BME280;12193;42.642;23.384;2023-06-19T15:41:10;94413.63;;;26.56;44.02
6425;BME280;12193;42.642;23.384;2023-06-19T15:43:39;94401.50;;;26.72;45.95
6425;BME280;12193;42.642;23.384;2023-06-19T15:46:08;94404.28;;;26.45;46.21
6425;BME280;12193;42.642;23.384;2023-06-19T15:48:38;94403.28;;;26.28;46.94
6425;BME280;12193;42.642;23.384;2023-06-19T15:51:08;94402.69;;;26.31;46.48
6425;BME280;12193;42.642;23.384;2023-06-19T15:53:40;94400.22;;;26.21;47.96
6425;BME280;12193;42.642;23.384;2023-06-19T15:56:09;94401.28;;;25.98;49.10
6425;BME280;12193;42.642;23.384;2023-06-19T15:58:38;94415.00;;;25.33;49.39
6425;BME280;12193;42.642;23.384;2023-06-19T16:01:08;94410.50;;;25.33;49.78
6425;BME280;12193;42.642;23.384;2023-06-19T16:03:37;94406.88;;;25.56;49.04
6425;BME280;12193;42.642;23.384;2023-06-19T16:06:06;94414.53;;;25.44;49.31
6425;BME280;12193;42.642;23.384;2023-06-19T16:08:36;94408.72;;;25.42;49.44
6425;BME280;12193;42.642;23.384;2023-06-19T16:11:08;94413.81;;;25.26;50.13
6425;BME280;12193;42.642;23.384;2023-06-19T16:13:39;94415.00;;;25.01;51.45
6425;BME280;12193;42.642;23.384;2023-06-19T16:16:08;94419.72;;;25.23;51.36
6425;BME280;12193;42.642;23.384;2023-06-19T16:18:37;94417.41;;;25.34;50.81
6425;BME280;12193;42.642;23.384;2023-06-19T16:21:07;94422.31;;;25.09;51.51